Roberts Field
KRDM : now visible

Airfield :











YOU CAN JOIN US ON...

 
LOGIN :

Register | Disclaimer

   EN    FR    IT 

 









Legend :    VFR   Marginal VFR   IFR   Intensive IFR   Very Intensive IFR
Visi :
Ceiling :
>= 8 km
>= 3000ft
5 to 8 km
1000 to 3000 ft
1500m to 5 km
500 to 1000 ft
800 to 1500m
200 to 500 ft
< 800m
< 200 ft
Symbols :   Thunderstorms  Fog  Heavy snow  Heavy precipitations  Wind > 20 kt






- Airport Elevation : 3080 ft
- IATA code : RDM


KRDM - Roberts Field

CURRENT METAR :
  • 051856Z 10003KT 10SM CLR 04/M01 A3007 RMK AO2 SLP196 T00441006

EXPIRED METARs :
  • 051756Z 00000KT 10SM CLR 03/M01 A3007 RMK AO2 SLP199 I6000 T00281011 10028 21044 52018
  • 051656Z VRB03KT 10SM CLR 01/M02 A3005 RMK AO2 SLP193 T00061017

TAF KRDM
Valid from the 05 at 18:00 until the 06 at 18:00 UTC


051736Z 0518/0618 VRB04KT P6SM BKN150
FM052100 15005KT P6SM FEW070 SCT200
FM060400 16004KT P6SM BKN150 BKN250



MET'MAP, your aeronautical weather chart ! - Copyright ORBIFLY December 2007 - Disclaimer

ORBIFLY MET'MAP TEAM :

Programming & Development : Alexandra Zaïnal
Concept & original design : Baudouin d'Aumeries
Assistance for programming : Marc-Olivier Méhu
Technical & hardware support : Manuel Goepfert

Contact : metmap@orbifly.com




SOURCES & CREDITS :

   NOAA       Earth
Advisory